Time;durP1;ratioP1;P1;durP2;ratioP2;P2;SDS_P1;SDS_P2;PMS_P1;PMS_P2;Temp;Humidity;BMP_temperature;BMP_pressure;BME280_temperature;BME280_humidity;BME280_pressure;Samples;Min_cycle;Max_cycle;Signal;HPM_P1;HPM_P2
2021/01/24 00:01:48;;;;;;;13.20;7.90;;;;;;;4.78;69.77;98304.30;147238;1148;104470;-73
2021/01/24 00:04:51;;;;;;;12.83;8.50;;;;;;;4.76;69.67;98304.46;147190;1148;104558;-73
2021/01/24 00:07:54;;;;;;;12.97;9.10;;;;;;;4.71;69.55;98307.61;147162;1148;104470;-73
2021/01/24 00:10:57;;;;;;;14.23;8.83;;;;;;;4.64;69.72;98306.60;147158;1148;104602;-73
2021/01/24 00:14:00;;;;;;;15.47;8.63;;;;;;;4.59;69.66;98311.53;147176;1148;104480;-73
2021/01/24 00:17:04;;;;;;;22.17;12.90;;;;;;;4.53;69.55;98309.55;147158;1148;104597;-73
2021/01/24 00:20:10;;;;;;;28.42;13.68;;;;;;;4.51;69.76;98300.97;147209;1148;104569;-73
2021/01/24 00:23:13;;;;;;;21.87;11.75;;;;;;;4.53;69.60;98299.80;147277;1148;104541;-72
2021/01/24 00:26:16;;;;;;;20.20;12.95;;;;;;;4.57;69.55;98295.03;146899;1148;104572;-71
2021/01/24 00:29:19;;;;;;;19.85;11.53;;;;;;;4.59;69.52;98293.05;147063;1148;104483;-72
2021/01/24 00:32:22;;;;;;;21.07;12.10;;;;;;;4.62;69.50;98295.38;147184;1148;104662;-71
2021/01/24 00:35:25;;;;;;;21.57;11.90;;;;;;;4.65;69.33;98296.85;147035;1148;104489;-71
2021/01/24 00:38:28;;;;;;;17.77;10.53;;;;;;;4.65;68.77;98296.85;147028;1148;104562;-71
2021/01/24 00:41:32;;;;;;;15.00;9.90;;;;;;;4.61;69.35;98300.81;146904;1148;104470;-72
2021/01/24 00:44:35;;;;;;;17.10;10.35;;;;;;;4.58;69.67;98291.41;146862;1148;104479;-71
2021/01/24 00:47:38;;;;;;;18.62;10.60;;;;;;;4.53;69.26;98304.27;146674;1145;104636;-71
2021/01/24 00:50:41;;;;;;;17.97;10.50;;;;;;;4.52;69.41;98302.60;147100;1148;104546;-71
2021/01/24 00:53:46;;;;;;;18.17;10.85;;;;;;;4.46;69.36;98290.88;147132;1148;104588;-71
2021/01/24 00:56:49;;;;;;;18.92;11.83;;;;;;;4.44;69.80;98294.67;147160;1148;104573;-73
2021/01/24 00:59:52;;;;;;;18.85;11.70;;;;;;;4.41;69.22;98289.73;146686;1148;104543;-74
2021/01/24 01:02:55;;;;;;;20.73;12.40;;;;;;;4.36;69.52;98282.28;146712;1148;104540;-75
2021/01/24 01:05:58;;;;;;;19.40;12.13;;;;;;;4.31;69.62;98280.14;146815;1148;104465;-73
2021/01/24 01:09:02;;;;;;;20.13;12.30;;;;;;;4.30;69.57;98281.11;147190;1148;104537;-73
2021/01/24 01:12:06;;;;;;;19.00;11.43;;;;;;;4.35;69.26;98285.92;147330;1148;104959;-72
2021/01/24 01:15:12;;;;;;;17.07;10.30;;;;;;;4.40;69.33;98280.96;147245;1145;104510;-73
2021/01/24 01:18:15;;;;;;;17.85;10.93;;;;;;;4.45;69.51;98276.03;147170;1148;104573;-73
2021/01/24 01:21:18;;;;;;;18.82;11.43;;;;;;;4.48;69.40;98280.16;147198;1146;104559;-75
2021/01/24 01:24:21;;;;;;;18.13;11.60;;;;;;;4.51;69.03;98274.55;146875;1148;104489;-71
2021/01/24 01:27:24;;;;;;;17.57;11.00;;;;;;;4.49;69.41;98263.33;146997;1148;104465;-70
2021/01/24 01:30:27;;;;;;;20.72;11.95;;;;;;;4.48;69.28;98259.02;147081;1148;104516;-70
2021/01/24 01:33:31;;;;;;;21.48;11.35;;;;;;;4.44;69.83;98268.27;147027;1148;104583;-70
2021/01/24 01:36:34;;;;;;;18.60;11.25;;;;;;;4.38;69.62;98272.38;147122;1148;104567;-70
2021/01/24 01:39:37;;;;;;;18.57;11.10;;;;;;;4.34;69.21;98273.70;147163;1148;104566;-71
2021/01/24 01:42:40;;;;;;;18.42;10.88;;;;;;;4.26;69.10;98271.05;146856;1148;104527;-71
2021/01/24 01:45:44;;;;;;;16.70;10.65;;;;;;;4.23;69.62;98271.36;146881;1148;104559;-72
2021/01/24 01:48:47;;;;;;;17.67;10.87;;;;;;;4.22;69.60;98269.72;146937;1147;104870;-72
2021/01/24 01:51:50;;;;;;;17.82;11.60;;;;;;;4.23;69.83;98258.98;147128;1148;104473;-73
2021/01/24 01:54:54;;;;;;;22.93;11.73;;;;;;;4.20;69.18;98248.76;146685;1148;104470;-72
2021/01/24 01:57:57;;;;;;;20.90;12.37;;;;;;;4.16;69.48;98238.66;146873;1148;104460;-72
2021/01/24 02:01:01;;;;;;;18.82;10.93;;;;;;;4.00;69.41;98226.27;147215;1148;104501;-74
2021/01/24 02:04:16;;;;;;;16.48;10.70;;;;;;;3.91;69.73;98220.98;147174;1148;104642;-72
2021/01/24 02:07:23;;;;;;;19.55;11.28;;;;;;;4.00;69.49;98216.53;147217;1148;104563;-73
2021/01/24 02:10:34;;;;;;;16.30;11.08;;;;;;;4.11;69.79;98204.85;147203;1148;104921;-72
2021/01/24 02:13:46;;;;;;;17.73;11.55;;;;;;;4.10;69.60;98201.39;147235;1148;104532;-71
2021/01/24 02:16:50;;;;;;;15.63;10.68;;;;;;;3.95;69.45;98195.09;147220;1148;104508;-71
2021/01/24 02:20:04;;;;;;;16.95;11.15;;;;;;;3.83;69.72;98197.22;147153;1148;104558;-72
2021/01/24 02:23:12;;;;;;;19.27;11.10;;;;;;;3.71;70.50;98194.05;147059;1148;104632;-73
2021/01/24 02:26:24;;;;;;;18.48;10.90;;;;;;;3.69;70.25;98190.72;147092;1148;104483;-73
2021/01/24 02:29:39;;;;;;;20.80;11.50;;;;;;;3.75;69.60;98194.53;146958;1148;104553;-73
2021/01/24 02:32:44;;;;;;;25.20;13.07;;;;;;;3.83;69.67;98191.94;146771;1148;104477;-73
2021/01/24 02:35:53;;;;;;;48.48;18.32;;;;;;;3.86;70.15;98190.78;146738;1148;104648;-73
2021/01/24 02:38:58;;;;;;;38.95;15.80;;;;;;;3.96;69.50;98183.54;147034;1148;104560;-73
2021/01/24 02:42:02;;;;;;;26.20;13.13;;;;;;;4.04;69.83;98188.86;146913;1148;104896;-74
2021/01/24 02:45:07;;;;;;;19.20;11.20;;;;;;;4.09;70.22;98180.44;146657;1148;104483;-71
2021/01/24 02:48:12;;;;;;;22.52;12.65;;;;;;;4.10;69.89;98176.83;147214;1148;104565;-73
2021/01/24 02:51:17;;;;;;;20.17;11.50;;;;;;;4.12;69.84;98178.30;147155;1148;104627;-73
2021/01/24 02:54:22;;;;;;;18.23;11.13;;;;;;;4.13;69.73;98181.76;146917;1148;104483;-73
2021/01/24 02:57:26;;;;;;;19.80;11.33;;;;;;;4.17;70.26;98180.44;146710;1148;104561;-74
2021/01/24 03:00:29;;;;;;;18.13;11.47;;;;;;;4.21;70.09;98184.40;147145;1148;104559;-73
2021/01/24 03:03:33;;;;;;;16.80;10.83;;;;;;;4.21;70.12;98175.66;147219;1148;104537;-73
2021/01/24 03:06:36;;;;;;;16.05;11.33;;;;;;;4.19;69.75;98177.64;147127;1148;104563;-73
2021/01/24 03:09:39;;;;;;;24.83;13.83;;;;;;;4.18;69.48;98170.73;147208;1148;104539;-73
2021/01/24 03:12:49;;;;;;;23.60;13.48;;;;;;;4.15;69.44;98163.95;147173;1148;104479;-70
2021/01/24 03:15:54;;;;;;;86.37;39.73;;;;;;;4.04;69.81;98157.19;147041;1148;104559;-70
2021/01/24 03:18:59;;;;;;;35.40;19.80;;;;;;;3.74;69.37;98145.42;146976;1148;104477;-71
2021/01/24 03:22:03;;;;;;;60.85;28.07;;;;;;;3.56;69.83;98152.61;146773;1148;104649;-72
2021/01/24 03:25:10;;;;;;;42.88;18.52;;;;;;;3.45;70.81;98157.20;146902;1148;104595;-72
2021/01/24 03:28:14;;;;;;;38.95;17.37;;;;;;;3.49;70.53;98157.71;147189;1148;104476;-71
2021/01/24 03:31:18;;;;;;;37.63;17.05;;;;;;;3.61;69.90;98159.05;147152;1148;104465;-70
2021/01/24 03:34:23;;;;;;;22.37;13.53;;;;;;;3.78;70.51;98153.84;147058;1148;104551;-71
2021/01/24 03:37:27;;;;;;;21.07;14.33;;;;;;;3.93;69.88;98163.59;146981;1148;104565;-71
2021/01/24 03:40:30;;;;;;;18.60;12.03;;;;;;;4.04;70.26;98159.83;147042;1148;104479;-71
2021/01/24 03:43:33;;;;;;;18.02;12.00;;;;;;;4.07;70.02;98161.30;146966;1148;104583;-71
2021/01/24 03:46:37;;;;;;;32.17;20.20;;;;;;;4.00;69.87;98149.74;147197;1148;104567;-72
2021/01/24 03:49:40;;;;;;;42.98;27.80;;;;;;;3.76;69.45;98137.34;147192;1148;104460;-71
2021/01/24 03:52:43;;;;;;;47.73;32.65;;;;;;;3.59;70.88;98136.48;147208;1148;104559;-71
2021/01/24 03:55:47;;;;;;;37.73;25.08;;;;;;;3.54;71.09;98140.42;147084;1148;104560;-72
2021/01/24 03:58:50;;;;;;;29.97;19.73;;;;;;;3.55;70.69;98146.52;147015;1148;104503;-72
2021/01/24 04:01:53;;;;;;;27.05;17.10;;;;;;;3.58;70.84;98155.91;147113;1148;104501;-72
2021/01/24 04:04:56;;;;;;;24.50;15.75;;;;;;;3.57;70.24;98147.18;147199;1148;104581;-72
2021/01/24 04:07:59;;;;;;;24.72;16.02;;;;;;;3.57;70.88;98149.00;147000;1148;104666;-72
2021/01/24 04:11:02;;;;;;;30.20;16.63;;;;;;;3.59;69.94;98168.94;147151;1148;104534;-72
2021/01/24 04:14:06;;;;;;;24.77;15.90;;;;;;;3.66;69.83;98163.87;147083;1148;104965;-73
2021/01/24 04:17:09;;;;;;;19.50;12.40;;;;;;;3.72;71.07;98164.03;146919;1148;104572;-73
2021/01/24 04:20:14;;;;;;;23.25;14.38;;;;;;;3.83;69.82;98169.98;146693;1148;104485;-71
2021/01/24 04:23:17;;;;;;;21.20;13.20;;;;;;;3.87;70.53;98161.61;147151;1148;104541;-71
2021/01/24 04:26:20;;;;;;;21.02;13.30;;;;;;;3.87;70.96;98161.61;147193;1148;104481;-71
2021/01/24 04:29:23;;;;;;;20.45;13.18;;;;;;;3.93;70.53;98154.86;147183;1148;104590;-71
2021/01/24 04:32:26;;;;;;;18.65;12.95;;;;;;;3.96;69.66;98153.70;147198;1148;104474;-71
2021/01/24 04:35:29;;;;;;;22.87;13.83;;;;;;;3.96;69.73;98148.42;147189;1148;104559;-71
2021/01/24 04:38:32;;;;;;;36.95;19.55;;;;;;;3.97;69.65;98147.45;146816;1148;105074;-70
2021/01/24 04:41:38;;;;;;;33.73;18.97;;;;;;;3.85;70.20;98147.75;147147;1148;104473;-69
2021/01/24 04:44:42;;;;;;;33.75;20.88;;;;;;;3.84;69.68;98164.55;146826;1148;104466;-72
2021/01/24 04:47:47;;;;;;;28.60;17.32;;;;;;;3.83;69.93;98165.56;146710;1148;104594;-73
2021/01/24 04:50:50;;;;;;;27.90;16.33;;;;;;;3.82;69.73;98179.72;147194;1148;104467;-72
2021/01/24 04:53:53;;;;;;;27.32;15.65;;;;;;;3.76;70.46;98167.18;146932;1146;104538;-71
2021/01/24 04:56:58;;;;;;;25.43;15.00;;;;;;;3.76;70.63;98177.73;147186;1148;104519;-73
2021/01/24 05:00:01;;;;;;;21.33;13.13;;;;;;;3.87;69.61;98173.98;147163;1148;104463;-73
2021/01/24 05:03:05;;;;;;;25.62;15.53;;;;;;;3.93;69.89;98175.97;147127;1148;104558;-73
2021/01/24 05:06:08;;;;;;;28.17;17.32;;;;;;;3.97;69.94;98166.73;147123;1148;104486;-72
2021/01/24 05:09:12;;;;;;;27.73;17.95;;;;;;;4.01;70.29;98164.60;147077;1148;104562;-72
2021/01/24 05:12:18;;;;;;;33.13;19.30;;;;;;;4.05;70.39;98173.84;146882;1148;104569;-72
2021/01/24 05:15:23;;;;;;;30.70;19.00;;;;;;;4.07;70.90;98166.58;146958;1147;104460;-73
2021/01/24 05:18:26;;;;;;;31.55;19.42;;;;;;;4.08;70.52;98152.38;146966;1148;104547;-74
2021/01/24 05:21:31;;;;;;;35.63;21.90;;;;;;;4.09;70.10;98143.48;147136;1148;104623;-73
2021/01/24 05:24:35;;;;;;;43.17;24.92;;;;;;;3.97;69.49;98139.53;147119;1148;104482;-72
2021/01/24 05:27:38;;;;;;;41.50;24.00;;;;;;;3.92;69.77;98142.64;147200;1148;104556;-73
2021/01/24 05:30:42;;;;;;;44.25;23.87;;;;;;;3.92;70.01;98143.45;147027;1148;104483;-70
2021/01/24 05:33:46;;;;;;;42.23;23.32;;;;;;;3.92;70.76;98142.64;146998;1148;104592;-72
2021/01/24 05:36:50;;;;;;;39.73;21.07;;;;;;;3.96;69.72;98143.96;147095;1148;104538;-74
2021/01/24 05:39:56;;;;;;;35.17;19.73;;;;;;;4.03;70.57;98144.15;147271;1148;104649;-71
2021/01/24 05:43:01;;;;;;;36.70;21.37;;;;;;;4.09;70.13;98151.41;147243;1148;104545;-71
2021/01/24 05:46:05;;;;;;;33.90;19.62;;;;;;;4.12;70.07;98151.09;147206;1148;104474;-72
2021/01/24 05:49:10;;;;;;;39.48;20.48;;;;;;;4.15;70.42;98152.57;147071;1148;104463;-72
2021/01/24 05:52:19;;;;;;;34.25;19.12;;;;;;;4.15;70.46;98142.83;147213;1148;104461;-72
2021/01/24 05:55:34;;;;;;;39.50;21.97;;;;;;;4.15;70.37;98142.83;146937;1148;104873;-74
2021/01/24 05:58:40;;;;;;;47.27;25.07;;;;;;;4.12;69.56;98143.99;147215;1148;104634;-74
2021/01/24 06:01:43;;;;;;;58.70;33.63;;;;;;;4.11;69.66;98144.15;147158;1148;104537;-70
2021/01/24 06:04:48;;;;;;;61.95;36.17;;;;;;;4.05;69.69;98134.25;147011;1148;104490;-70
2021/01/24 06:07:54;;;;;;;50.65;28.92;;;;;;;4.00;70.33;98139.19;147082;1148;104585;-73
2021/01/24 06:10:59;;;;;;;50.90;28.57;;;;;;;3.96;70.59;98138.69;147205;1148;104614;-72
2021/01/24 06:14:07;;;;;;;47.43;26.27;;;;;;;3.96;69.73;98143.14;147286;1148;104651;-71
2021/01/24 06:17:25;;;;;;;38.73;20.83;;;;;;;3.90;69.39;98134.06;147372;1148;104556;-72
2021/01/24 06:20:35;;;;;;;43.87;21.85;;;;;;;3.97;69.99;98124.52;147075;1148;104560;-72
2021/01/24 06:23:46;;;;;;;84.80;40.70;;;;;;;3.93;69.74;98133.75;146836;1148;104486;-76
2021/01/24 06:26:53;;;;;;;133.72;64.20;;;;;;;3.82;69.95;98129.59;147085;1148;104552;-75
2021/01/24 06:30:00;;;;;;;79.22;39.70;;;;;;;3.88;70.74;98128.94;147230;1150;104545;-76
2021/01/24 06:33:17;;;;;;;69.55;34.40;;;;;;;3.93;70.24;98123.20;147222;1150;104528;-76
2021/01/24 06:36:21;;;;;;;60.63;29.73;;;;;;;3.96;70.27;98119.39;147195;1150;104563;-73
2021/01/24 06:39:30;;;;;;;53.83;26.90;;;;;;;3.98;69.68;98125.33;147124;1150;104486;-73
2021/01/24 06:42:46;;;;;;;59.65;31.55;;;;;;;3.99;69.86;98116.45;147019;1149;104649;-72
2021/01/24 06:45:49;;;;;;;54.35;27.67;;;;;;;3.91;69.58;98118.08;146713;1151;104506;-72
2021/01/24 06:48:54;;;;;;;45.47;25.10;;;;;;;3.80;69.73;98113.11;146673;1150;104471;-73
2021/01/24 06:52:15;;;;;;;59.05;32.05;;;;;;;3.79;69.93;98132.58;146788;1149;104473;-73
2021/01/24 06:55:28;;;;;;;65.05;34.35;;;;;;;3.81;70.56;98109.50;147199;1150;104485;-70
2021/01/24 06:58:32;;;;;;;64.30;33.15;;;;;;;3.80;69.82;98115.75;146863;1150;104495;-71
2021/01/24 07:01:36;;;;;;;56.92;29.30;;;;;;;3.82;70.40;98118.23;146827;1150;104513;-70
2021/01/24 07:04:40;;;;;;;62.45;30.62;;;;;;;3.89;70.31;98122.69;146852;1150;104562;-73
2021/01/24 07:07:45;;;;;;;67.67;37.35;;;;;;;3.92;70.52;98122.34;147151;1150;104510;-73
2021/01/24 07:10:48;;;;;;;75.80;44.95;;;;;;;3.82;69.30;98116.41;147041;1150;104852;-72
2021/01/24 07:13:51;;;;;;;80.20;45.85;;;;;;;3.79;69.96;98122.03;147085;1150;104758;-74
2021/01/24 07:16:55;;;;;;;77.57;43.47;;;;;;;3.84;69.92;98114.44;146850;1150;104493;-73
2021/01/24 07:19:58;;;;;;;94.52;60.95;;;;;;;3.76;70.59;98103.87;147112;1150;104892;-72
2021/01/24 07:23:01;;;;;;;67.37;41.20;;;;;;;3.73;70.05;98102.40;146858;1150;104605;-71
2021/01/24 07:26:05;;;;;;;59.83;36.00;;;;;;;3.62;70.43;98099.22;147087;1150;104487;-72
2021/01/24 07:29:09;;;;;;;40.65;25.35;;;;;;;3.50;70.89;98096.91;146890;1150;104615;-71
2021/01/24 07:32:13;;;;;;;41.30;25.52;;;;;;;3.53;69.91;98086.02;146888;1151;104497;-71
2021/01/24 07:35:18;;;;;;;59.60;32.08;;;;;;;3.58;70.31;98087.34;146996;1149;104463;-71
2021/01/24 07:38:21;;;;;;;88.55;44.10;;;;;;;3.47;70.68;98085.86;146723;1150;104562;-71
2021/01/24 07:41:24;;;;;;;99.67;46.03;;;;;;;3.39;71.18;98088.45;146904;1150;104503;-72
2021/01/24 07:44:28;;;;;;;57.67;30.47;;;;;;;3.42;70.31;98086.33;146901;1150;104871;-72
2021/01/24 07:47:31;;;;;;;40.92;23.75;;;;;;;3.50;70.76;98094.28;146872;1149;104479;-71
2021/01/24 07:50:34;;;;;;;41.07;24.10;;;;;;;3.62;71.13;98100.06;146789;1150;104461;-72
2021/01/24 07:53:38;;;;;;;40.90;23.07;;;;;;;3.65;70.50;98099.72;146920;1150;104472;-71
2021/01/24 07:56:42;;;;;;;38.38;23.22;;;;;;;3.65;70.25;98093.63;147046;1149;104476;-72
2021/01/24 07:59:45;;;;;;;34.73;21.63;;;;;;;3.69;71.07;98094.95;147055;1149;104550;-71
2021/01/24 08:02:48;;;;;;;34.92;21.87;;;;;;;3.61;71.07;98087.85;146873;1150;104671;-71
2021/01/24 08:05:51;;;;;;;33.60;21.50;;;;;;;3.56;70.93;98076.14;146851;1149;104569;-71
2021/01/24 08:08:55;;;;;;;35.75;21.60;;;;;;;3.60;71.31;98083.58;147060;1149;104828;-71
2021/01/24 08:11:59;;;;;;;34.48;20.05;;;;;;;3.58;70.41;98087.34;147043;1150;104464;-71
2021/01/24 08:15:03;;;;;;;31.30;18.65;;;;;;;3.52;71.35;98087.03;146978;1150;104562;-72
2021/01/24 08:18:07;;;;;;;30.95;18.20;;;;;;;3.51;71.30;98076.64;146737;1150;104614;-72
2021/01/24 08:21:11;;;;;;;25.43;16.07;;;;;;;3.60;71.42;98072.19;147181;1149;104505;-73
2021/01/24 08:24:15;;;;;;;32.65;20.23;;;;;;;3.70;70.56;98067.61;147052;1149;104541;-72
2021/01/24 08:27:19;;;;;;;27.87;17.30;;;;;;;3.79;70.43;98069.27;147179;1151;104551;-74
2021/01/24 08:30:23;;;;;;;29.02;18.25;;;;;;;3.84;70.86;98066.95;147175;1150;104623;-74
2021/01/24 08:33:26;;;;;;;27.62;16.87;;;;;;;3.87;70.77;98066.63;147213;1150;104521;-74
2021/01/24 08:36:30;;;;;;;29.20;18.37;;;;;;;3.90;70.53;98068.11;147161;1150;104538;-73
2021/01/24 08:39:34;;;;;;;27.87;17.10;;;;;;;3.89;70.97;98075.20;147192;1151;104512;-73
2021/01/24 08:42:50;;;;;;;34.30;22.82;;;;;;;3.89;70.78;98075.20;147265;1148;104579;-69
2021/01/24 08:45:54;;;;;;;27.07;16.60;;;;;;;3.88;69.90;98064.80;147067;1148;104732;-72
2021/01/24 08:49:06;;;;;;;25.48;15.23;;;;;;;3.79;70.12;98066.63;147209;1148;104546;-72
2021/01/24 08:52:09;;;;;;;27.40;16.48;;;;;;;3.75;71.20;98057.37;147271;1148;104953;-73
2021/01/24 08:55:12;;;;;;;25.88;15.45;;;;;;;3.77;70.59;98057.21;147295;1148;104469;-72
2021/01/24 08:58:25;;;;;;;26.40;16.48;;;;;;;3.78;70.42;98051.78;147387;1148;104478;-75
2021/01/24 09:01:28;;;;;;;26.85;17.00;;;;;;;3.73;70.38;98051.44;146925;1148;104524;-75
2021/01/24 09:04:32;;;;;;;25.90;16.17;;;;;;;3.66;70.52;98034.64;147086;1148;104593;-73
2021/01/24 09:07:40;;;;;;;29.12;17.62;;;;;;;3.56;70.91;98047.98;147143;1148;104551;-74
2021/01/24 09:10:44;;;;;;;28.20;17.98;;;;;;;3.53;71.07;98043.84;147256;1150;104394;-73
2021/01/24 09:13:48;;;;;;;26.82;17.45;;;;;;;3.56;70.42;98047.13;147224;1151;104565;-73
2021/01/24 09:17:03;;;;;;;37.67;20.77;;;;;;;3.62;70.58;98041.20;147195;1150;104559;-73
2021/01/24 09:20:08;;;;;;;40.38;20.60;;;;;;;3.59;70.98;98042.36;147291;1150;104559;-76
2021/01/24 09:23:12;;;;;;;38.00;19.80;;;;;;;3.64;71.30;98044.53;147203;1150;104450;-77
2021/01/24 09:26:15;;;;;;;33.50;18.07;;;;;;;3.68;70.55;98037.94;146934;1149;104548;-76
2021/01/24 09:29:18;;;;;;;50.17;22.32;;;;;;;3.74;71.32;98040.73;146774;1149;104482;-72
2021/01/24 09:32:22;;;;;;;61.50;27.85;;;;;;;3.82;71.36;98041.73;146896;1149;104621;-71
2021/01/24 09:35:25;;;;;;;60.48;26.50;;;;;;;3.89;70.09;98040.09;147214;1149;104568;-73
2021/01/24 09:38:28;;;;;;;82.30;34.92;;;;;;;3.86;70.47;98033.31;147213;1150;104473;-76
2021/01/24 09:41:31;;;;;;;294.25;129.60;;;;;;;3.87;70.36;98032.33;147233;1149;104591;-72
2021/01/24 09:44:34;;;;;;;578.30;236.68;;;;;;;3.90;70.82;98026.70;147277;1149;104559;-73
2021/01/24 09:47:38;;;;;;;177.17;70.78;;;;;;;3.92;70.25;98024.73;147127;1149;104542;-73
2021/01/24 09:50:41;;;;;;;84.83;38.40;;;;;;;3.95;70.46;98015.67;147189;1148;104536;-72
2021/01/24 09:53:47;;;;;;;52.45;29.35;;;;;;;3.95;70.66;98020.14;147213;1151;104441;-71
2021/01/24 09:56:51;;;;;;;42.98;25.17;;;;;;;3.95;70.42;98020.14;147265;1150;104559;-71
2021/01/24 09:59:54;;;;;;;38.80;22.75;;;;;;;3.85;71.03;98018.48;147228;1149;104534;-72
2021/01/24 10:02:57;;;;;;;37.60;22.07;;;;;;;3.79;70.60;98005.96;147135;1150;104742;-74
2021/01/24 10:06:00;;;;;;;34.23;20.85;;;;;;;3.76;70.41;98005.47;146979;1150;104559;-73
2021/01/24 10:09:05;;;;;;;40.13;24.70;;;;;;;3.78;71.26;97998.20;147161;1150;104551;-73
2021/01/24 10:12:09;;;;;;;76.57;47.83;;;;;;;3.82;70.62;97997.70;147244;1149;104473;-74
2021/01/24 10:15:13;;;;;;;128.35;93.00;;;;;;;3.83;70.87;98004.64;146804;1150;104476;-73
2021/01/24 10:18:16;;;;;;;69.93;46.27;;;;;;;3.79;70.51;98005.11;146807;1150;104541;-73
2021/01/24 10:21:20;;;;;;;52.27;33.05;;;;;;;3.74;71.53;97998.53;147285;1149;104982;-74
2021/01/24 10:24:23;;;;;;;62.83;40.33;;;;;;;3.61;70.68;97998.19;147284;1151;104558;-75
2021/01/24 10:27:26;;;;;;;52.20;33.13;;;;;;;3.52;70.50;98001.80;147052;1150;104482;-74
2021/01/24 10:30:29;;;;;;;51.30;31.80;;;;;;;3.43;70.26;98000.98;146665;1148;104517;-74
2021/01/24 10:33:32;;;;;;;52.17;29.87;;;;;;;3.34;70.54;98007.23;146870;1150;104575;-74
2021/01/24 10:36:36;;;;;;;212.17;84.20;;;;;;;3.29;71.42;98014.79;147235;1149;104566;-75
2021/01/24 10:39:39;;;;;;;152.35;68.78;;;;;;;3.38;71.42;98024.38;147300;1150;104548;-75
2021/01/24 10:42:42;;;;;;;112.90;61.48;;;;;;;3.45;71.52;98024.56;147183;1150;104543;-75
2021/01/24 10:45:45;;;;;;;93.03;57.30;;;;;;;3.42;71.47;98025.69;147235;1150;104564;-74
2021/01/24 10:48:48;;;;;;;52.33;32.00;;;;;;;3.34;70.73;98026.50;147165;1150;104537;-75
2021/01/24 10:51:52;;;;;;;49.15;27.75;;;;;;;3.27;71.47;98022.03;147200;1150;104635;-73
2021/01/24 10:54:55;;;;;;;46.77;27.50;;;;;;;3.14;71.71;98019.89;147231;1149;104488;-73
2021/01/24 10:57:58;;;;;;;40.05;25.35;;;;;;;2.92;71.06;98027.37;147164;1150;104464;-71
2021/01/24 11:01:01;;;;;;;228.75;85.83;;;;;;;2.89;70.76;98025.07;146961;1150;104519;-73
2021/01/24 11:04:05;;;;;;;52.43;25.60;;;;;;;2.84;71.98;98014.17;147192;1150;104628;-72
2021/01/24 11:07:08;;;;;;;34.80;20.90;;;;;;;2.77;70.88;98021.05;146894;1150;104581;-72
2021/01/24 11:10:13;;;;;;;29.57;18.00;;;;;;;2.77;71.57;98014.97;147152;1149;104517;-75
2021/01/24 11:13:16;;;;;;;79.63;35.40;;;;;;;2.69;70.81;98021.03;147210;1150;104554;-73
2021/01/24 11:16:19;;;;;;;101.05;43.35;;;;;;;2.67;71.73;98015.91;146957;1150;104506;-72
2021/01/24 11:19:22;;;;;;;94.72;41.08;;;;;;;2.66;71.47;98018.73;146933;1149;104715;-71
2021/01/24 11:22:26;;;;;;;83.60;43.40;;;;;;;2.58;72.23;98010.77;146988;1150;104575;-72
2021/01/24 11:25:29;;;;;;;105.53;53.97;;;;;;;2.53;72.54;98017.34;147082;1150;104509;-72
2021/01/24 11:28:32;;;;;;;63.70;30.80;;;;;;;2.61;71.17;98010.47;146664;1149;104483;-72
2021/01/24 11:31:35;;;;;;;128.25;57.30;;;;;;;2.61;72.91;98011.28;147066;1149;104573;-78
2021/01/24 11:34:39;;;;;;;78.30;37.48;;;;;;;2.61;72.58;98011.28;147098;1149;104521;-78
2021/01/24 11:37:42;;;;;;;98.60;47.83;;;;;;;2.68;72.91;98014.95;146929;1150;104582;-76
2021/01/24 11:40:45;;;;;;;93.87;46.47;;;;;;;2.74;71.91;98008.22;147297;1151;104566;-76
2021/01/24 11:43:48;;;;;;;133.37;66.12;;;;;;;2.73;71.90;98007.41;147313;1151;104598;-77
2021/01/24 11:46:52;;;;;;;76.40;38.80;;;;;;;2.68;71.23;98004.41;147052;1150;104604;-76
2021/01/24 11:49:56;;;;;;;69.43;38.43;;;;;;;2.67;72.31;98009.83;146825;1149;104656;-74
2021/01/24 11:52:59;;;;;;;88.75;48.73;;;;;;;2.72;71.89;98003.11;147149;1149;104468;-76
2021/01/24 11:56:02;;;;;;;100.13;55.40;;;;;;;2.61;72.16;98002.57;147246;1149;104565;-76
2021/01/24 11:59:05;;;;;;;88.35;43.48;;;;;;;2.44;72.93;97999.03;147066;1151;104572;-77
2021/01/24 12:02:08;;;;;;;71.37;38.83;;;;;;;2.38;72.98;97994.40;146687;1150;104560;-74
2021/01/24 12:05:12;;;;;;;117.65;63.55;;;;;;;2.31;74.03;97994.18;146877;1149;104557;-74
2021/01/24 12:08:16;;;;;;;141.20;74.65;;;;;;;2.32;73.04;97994.03;146726;1150;104561;-74
2021/01/24 12:11:19;;;;;;;111.52;56.90;;;;;;;2.30;73.42;97996.00;146719;1150;104465;-75
2021/01/24 12:14:22;;;;;;;101.47;49.98;;;;;;;2.32;73.44;97996.66;146700;1148;104533;-76
2021/01/24 12:17:25;;;;;;;99.35;51.08;;;;;;;2.31;73.42;97995.03;146731;1149;104550;-76
2021/01/24 12:20:29;;;;;;;115.25;62.98;;;;;;;2.30;71.97;98001.27;147036;1149;104629;-76
2021/01/24 12:23:32;;;;;;;62.95;31.62;;;;;;;2.40;72.80;98002.96;146851;1150;104905;-75
2021/01/24 12:26:35;;;;;;;110.05;55.50;;;;;;;2.47;73.64;97993.47;147225;1150;104464;-74
2021/01/24 12:29:40;;;;;;;97.30;52.03;;;;;;;2.47;72.52;97998.73;147158;1149;104551;-74
2021/01/24 12:32:44;;;;;;;99.50;57.57;;;;;;;2.41;73.65;97992.28;147298;1151;104501;-76
2021/01/24 12:35:47;;;;;;;66.43;35.17;;;;;;;2.33;73.12;97979.09;147280;1150;104969;-76
2021/01/24 12:38:51;;;;;;;58.00;32.20;;;;;;;2.33;72.65;97986.98;147260;1150;104558;-74
2021/01/24 12:41:54;;;;;;;71.65;40.12;;;;;;;2.29;73.13;97991.73;146976;1148;104854;-76
2021/01/24 12:44:57;;;;;;;87.55;45.78;;;;;;;2.30;73.23;97995.18;147205;1148;104492;-76
2021/01/24 12:48:00;;;;;;;62.80;34.95;;;;;;;2.31;73.54;98005.55;147291;1148;104563;-74
2021/01/24 12:51:04;;;;;;;79.55;42.35;;;;;;;2.35;73.84;97999.00;147212;1150;104682;-76
2021/01/24 12:54:07;;;;;;;60.28;33.67;;;;;;;2.44;72.68;97999.03;147973;1151;104561;-75
2021/01/24 12:57:10;;;;;;;75.12;43.08;;;;;;;2.57;73.71;97998.61;146802;1150;104509;-77
2021/01/24 13:00:15;;;;;;;87.50;44.33;;;;;;;2.63;73.48;98009.31;146802;1149;104544;-78
2021/01/24 13:03:18;;;;;;;242.87;122.23;;;;;;;2.74;73.52;98013.48;147101;1149;104487;-78
2021/01/24 13:06:21;;;;;;;107.17;58.50;;;;;;;2.84;72.98;98008.09;147288;1149;104610;-75
2021/01/24 13:09:24;;;;;;;129.63;79.33;;;;;;;2.90;72.15;98015.35;147304;1149;104566;-78
2021/01/24 13:12:27;;;;;;;82.92;49.95;;;;;;;3.00;72.13;98020.48;147382;1149;104486;-76
2021/01/24 13:15:30;;;;;;;118.53;71.72;;;;;;;3.08;73.16;98028.41;147271;1150;104546;-80
2021/01/24 13:18:34;;;;;;;82.00;43.90;;;;;;;3.19;71.90;98025.48;147301;1149;104505;-73
2021/01/24 13:21:38;;;;;;;69.80;38.40;;;;;;;3.27;72.67;98030.80;147279;1149;104679;-78
2021/01/24 13:24:41;;;;;;;104.67;50.00;;;;;;;3.36;72.29;98031.61;147243;1149;104546;-79
2021/01/24 13:27:44;;;;;;;122.02;64.32;;;;;;;3.43;72.47;98021.27;147141;1150;104553;-74
2021/01/24 13:30:47;;;;;;;89.62;46.53;;;;;;;3.59;72.91;98025.72;147064;1150;104486;-74
2021/01/24 13:33:50;;;;;;;65.30;34.05;;;;;;;3.65;71.86;98022.42;147255;1149;104591;-73
2021/01/24 13:36:54;;;;;;;54.47;29.27;;;;;;;3.56;71.33;98020.77;147234;1150;105007;-74
2021/01/24 13:39:57;;;;;;;56.83;29.90;;;;;;;3.44;72.16;98017.63;147096;1149;104468;-75
2021/01/24 13:43:00;;;;;;;98.75;54.23;;;;;;;3.41;72.18;98033.78;146980;1151;104503;-74
2021/01/24 13:46:03;;;;;;;139.20;68.07;;;;;;;3.58;71.83;98040.73;147101;1150;104509;-74
2021/01/24 13:49:06;;;;;;;80.15;42.00;;;;;;;3.79;71.65;98045.53;147189;1148;104557;-73
2021/01/24 13:52:09;;;;;;;51.87;27.90;;;;;;;3.95;71.47;98057.08;147208;1145;104625;-76
2021/01/24 13:55:13;;;;;;;66.72;39.05;;;;;;;4.02;71.54;98061.53;147454;1148;104960;-73
2021/01/24 13:58:16;;;;;;;52.75;30.00;;;;;;;4.09;71.57;98074.88;148593;1148;104457;-73